sensor_id;sensor_type;location;lat;lon;timestamp;P1;durP1;ratioP1;P2;durP2;ratioP2
34521;SDS011;25561;48.888;8.736;2023-03-23T06:49:57;3.55;;;2.03;;
34521;SDS011;25561;48.888;8.736;2023-03-23T06:52:58;8.43;;;1.80;;
34521;SDS011;25561;48.888;8.736;2023-03-23T06:55:59;4.30;;;1.73;;
34521;SDS011;25561;48.888;8.736;2023-03-23T06:59:00;11.35;;;2.33;;
34521;SDS011;25561;48.888;8.736;2023-03-23T07:02:01;6.53;;;2.10;;
34521;SDS011;25561;48.888;8.736;2023-03-23T07:05:02;8.02;;;2.67;;
34521;SDS011;25561;48.888;8.736;2023-03-23T07:08:04;2.55;;;1.80;;
34521;SDS011;25561;48.888;8.736;2023-03-23T07:11:06;4.35;;;1.67;;
34521;SDS011;25561;48.888;8.736;2023-03-23T07:14:08;4.38;;;2.03;;
34521;SDS011;25561;48.888;8.736;2023-03-23T07:17:11;5.72;;;1.80;;
34521;SDS011;25561;48.888;8.736;2023-03-23T07:20:14;3.47;;;1.58;;
34521;SDS011;25561;48.888;8.736;2023-03-23T07:23:18;4.20;;;1.40;;
34521;SDS011;25561;48.888;8.736;2023-03-23T07:26:21;4.55;;;1.83;;
34521;SDS011;25561;48.888;8.736;2023-03-23T07:29:26;3.08;;;1.73;;
34521;SDS011;25561;48.888;8.736;2023-03-23T07:32:30;3.40;;;1.63;;
34521;SDS011;25561;48.888;8.736;2023-03-23T07:35:34;3.67;;;1.95;;
34521;SDS011;25561;48.888;8.736;2023-03-23T07:38:38;3.13;;;1.85;;
34521;SDS011;25561;48.888;8.736;2023-03-23T07:41:39;6.00;;;2.30;;
34521;SDS011;25561;48.888;8.736;2023-03-23T07:44:41;3.60;;;1.95;;
34521;SDS011;25561;48.888;8.736;2023-03-23T07:47:42;4.72;;;2.17;;
34521;SDS011;25561;48.888;8.736;2023-03-23T07:50:46;4.93;;;2.03;;
34521;SDS011;25561;48.888;8.736;2023-03-23T07:53:48;4.13;;;2.08;;
34521;SDS011;25561;48.888;8.736;2023-03-23T07:56:50;5.50;;;1.85;;
34521;SDS011;25561;48.888;8.736;2023-03-23T07:59:52;6.15;;;1.98;;
34521;SDS011;25561;48.888;8.736;2023-03-23T08:02:54;4.50;;;3.03;;
34521;SDS011;25561;48.888;8.736;2023-03-23T08:05:57;8.27;;;2.47;;
34521;SDS011;25561;48.888;8.736;2023-03-23T08:08:59;4.05;;;2.22;;
34521;SDS011;25561;48.888;8.736;2023-03-23T08:12:00;7.43;;;2.75;;
34521;SDS011;25561;48.888;8.736;2023-03-23T08:15:01;3.35;;;1.95;;
34521;SDS011;25561;48.888;8.736;2023-03-23T08:18:03;4.93;;;2.30;;
34521;SDS011;25561;48.888;8.736;2023-03-23T08:21:05;4.32;;;2.40;;
34521;SDS011;25561;48.888;8.736;2023-03-23T08:24:10;5.13;;;2.00;;
34521;SDS011;25561;48.888;8.736;2023-03-23T08:27:11;5.78;;;1.80;;
34521;SDS011;25561;48.888;8.736;2023-03-23T08:30:14;6.85;;;3.05;;
34521;SDS011;25561;48.888;8.736;2023-03-23T08:33:17;10.05;;;2.85;;
34521;SDS011;25561;48.888;8.736;2023-03-23T08:36:18;6.95;;;3.13;;
34521;SDS011;25561;48.888;8.736;2023-03-23T08:39:19;7.28;;;3.33;;
34521;SDS011;25561;48.888;8.736;2023-03-23T08:42:20;2.80;;;1.90;;
34521;SDS011;25561;48.888;8.736;2023-03-23T08:45:23;3.13;;;1.83;;
34521;SDS011;25561;48.888;8.736;2023-03-23T08:48:26;3.70;;;1.70;;
34521;SDS011;25561;48.888;8.736;2023-03-23T08:51:29;3.42;;;1.70;;
34521;SDS011;25561;48.888;8.736;2023-03-23T08:54:30;3.65;;;1.63;;
34521;SDS011;25561;48.888;8.736;2023-03-23T08:57:31;5.57;;;1.85;;
34521;SDS011;25561;48.888;8.736;2023-03-23T09:00:32;2.55;;;1.60;;
34521;SDS011;25561;48.888;8.736;2023-03-23T09:03:34;19.27;;;1.80;;
34521;SDS011;25561;48.888;8.736;2023-03-23T09:06:36;3.28;;;1.52;;
34521;SDS011;25561;48.888;8.736;2023-03-23T09:09:38;4.10;;;1.88;;
34521;SDS011;25561;48.888;8.736;2023-03-23T09:12:43;5.85;;;1.60;;
34521;SDS011;25561;48.888;8.736;2023-03-23T09:15:46;6.85;;;1.70;;
34521;SDS011;25561;48.888;8.736;2023-03-23T09:18:50;6.65;;;2.05;;
34521;SDS011;25561;48.888;8.736;2023-03-23T09:21:51;3.75;;;1.60;;
34521;SDS011;25561;48.888;8.736;2023-03-23T09:24:51;4.25;;;1.45;;
34521;SDS011;25561;48.888;8.736;2023-03-23T09:27:54;2.60;;;1.67;;
34521;SDS011;25561;48.888;8.736;2023-03-23T09:30:56;7.45;;;1.73;;
34521;SDS011;25561;48.888;8.736;2023-03-23T09:34:00;2.33;;;1.67;;
34521;SDS011;25561;48.888;8.736;2023-03-23T09:37:03;6.63;;;1.80;;
34521;SDS011;25561;48.888;8.736;2023-03-23T09:40:09;5.78;;;1.70;;
34521;SDS011;25561;48.888;8.736;2023-03-23T09:43:36;2.17;;;1.35;;
34521;SDS011;25561;48.888;8.736;2023-03-23T09:47:00;3.67;;;1.90;;
34521;SDS011;25561;48.888;8.736;2023-03-23T09:50:15;5.00;;;2.50;;
34521;SDS011;25561;48.888;8.736;2023-03-23T09:53:26;5.50;;;2.40;;
34521;SDS011;25561;48.888;8.736;2023-03-23T09:56:35;2.42;;;1.50;;
34521;SDS011;25561;48.888;8.736;2023-03-23T10:02:56;3.45;;;1.55;;
34521;SDS011;25561;48.888;8.736;2023-03-23T10:06:11;4.03;;;2.85;;
34521;SDS011;25561;48.888;8.736;2023-03-23T10:09:17;3.05;;;1.92;;
34521;SDS011;25561;48.888;8.736;2023-03-23T10:15:30;1.85;;;1.40;;
34521;SDS011;25561;48.888;8.736;2023-03-23T10:18:41;5.75;;;1.40;;
34521;SDS011;25561;48.888;8.736;2023-03-23T10:22:07;5.78;;;1.63;;
34521;SDS011;25561;48.888;8.736;2023-03-23T10:28:18;5.45;;;2.45;;
34521;SDS011;25561;48.888;8.736;2023-03-23T10:31:24;5.20;;;2.47;;
34521;SDS011;25561;48.888;8.736;2023-03-23T10:37:48;3.60;;;1.70;;
34521;SDS011;25561;48.888;8.736;2023-03-23T10:40:59;2.13;;;1.70;;
34521;SDS011;25561;48.888;8.736;2023-03-23T10:44:39;3.53;;;1.80;;
34521;SDS011;25561;48.888;8.736;2023-03-23T10:47:36;3.90;;;2.00;;
34521;SDS011;25561;48.888;8.736;2023-03-23T10:50:44;2.78;;;1.67;;
34521;SDS011;25561;48.888;8.736;2023-03-23T10:53:55;3.63;;;1.63;;
34521;SDS011;25561;48.888;8.736;2023-03-23T10:56:58;2.75;;;1.70;;
34521;SDS011;25561;48.888;8.736;2023-03-23T11:00:00;2.75;;;1.60;;
34521;SDS011;25561;48.888;8.736;2023-03-23T11:03:20;4.43;;;1.60;;
34521;SDS011;25561;48.888;8.736;2023-03-23T11:06:30;3.20;;;2.10;;
34521;SDS011;25561;48.888;8.736;2023-03-23T11:09:51;3.47;;;1.70;;
34521;SDS011;25561;48.888;8.736;2023-03-23T11:12:58;2.42;;;1.73;;
34521;SDS011;25561;48.888;8.736;2023-03-23T11:16:01;4.25;;;1.50;;
34521;SDS011;25561;48.888;8.736;2023-03-23T11:19:12;4.60;;;1.45;;
34521;SDS011;25561;48.888;8.736;2023-03-23T11:22:26;2.78;;;1.90;;
34521;SDS011;25561;48.888;8.736;2023-03-23T11:25:29;3.78;;;2.22;;
34521;SDS011;25561;48.888;8.736;2023-03-23T11:28:31;3.55;;;1.80;;
34521;SDS011;25561;48.888;8.736;2023-03-23T11:31:36;5.30;;;1.92;;
34521;SDS011;25561;48.888;8.736;2023-03-23T11:34:41;7.10;;;2.15;;
34521;SDS011;25561;48.888;8.736;2023-03-23T11:37:46;6.47;;;2.30;;
34521;SDS011;25561;48.888;8.736;2023-03-23T11:40:54;7.30;;;2.38;;
34521;SDS011;25561;48.888;8.736;2023-03-23T11:43:55;3.10;;;1.50;;
34521;SDS011;25561;48.888;8.736;2023-03-23T11:56:54;3.55;;;2.33;;
34521;SDS011;25561;48.888;8.736;2023-03-23T11:59:56;4.63;;;2.53;;
34521;SDS011;25561;48.888;8.736;2023-03-23T12:06:27;4.53;;;2.63;;
34521;SDS011;25561;48.888;8.736;2023-03-23T12:10:15;6.35;;;2.85;;
34521;SDS011;25561;48.888;8.736;2023-03-23T12:17:14;6.40;;;3.25;;
34521;SDS011;25561;48.888;8.736;2023-03-23T12:20:37;4.45;;;2.58;;
34521;SDS011;25561;48.888;8.736;2023-03-23T12:23:47;4.22;;;2.17;;
34521;SDS011;25561;48.888;8.736;2023-03-23T12:26:52;5.28;;;3.40;;
34521;SDS011;25561;48.888;8.736;2023-03-23T12:30:25;5.50;;;2.30;;
34521;SDS011;25561;48.888;8.736;2023-03-23T12:50:18;5.47;;;3.08;;
34521;SDS011;25561;48.888;8.736;2023-03-23T13:03:19;4.30;;;2.40;;
34521;SDS011;25561;48.888;8.736;2023-03-23T13:06:35;4.57;;;2.30;;
34521;SDS011;25561;48.888;8.736;2023-03-23T13:12:54;4.20;;;2.25;;
34521;SDS011;25561;48.888;8.736;2023-03-23T13:16:01;4.53;;;2.80;;
34521;SDS011;25561;48.888;8.736;2023-03-23T13:29:23;4.30;;;2.90;;
34521;SDS011;25561;48.888;8.736;2023-03-23T13:32:35;4.25;;;2.53;;
34521;SDS011;25561;48.888;8.736;2023-03-23T13:35:40;5.47;;;2.63;;
34521;SDS011;25561;48.888;8.736;2023-03-23T13:38:48;4.30;;;2.58;;
34521;SDS011;25561;48.888;8.736;2023-03-23T13:42:03;4.40;;;2.80;;
34521;SDS011;25561;48.888;8.736;2023-03-23T13:45:21;4.80;;;2.40;;
34521;SDS011;25561;48.888;8.736;2023-03-23T13:48:39;10.27;;;3.28;;
34521;SDS011;25561;48.888;8.736;2023-03-23T13:54:48;4.40;;;2.95;;
34521;SDS011;25561;48.888;8.736;2023-03-23T13:57:54;13.70;;;2.88;;
34521;SDS011;25561;48.888;8.736;2023-03-23T14:04:15;4.45;;;2.30;;
34521;SDS011;25561;48.888;8.736;2023-03-23T14:07:20;6.60;;;2.80;;
34521;SDS011;25561;48.888;8.736;2023-03-23T14:10:31;8.00;;;2.78;;
34521;SDS011;25561;48.888;8.736;2023-03-23T14:13:40;10.02;;;3.90;;
34521;SDS011;25561;48.888;8.736;2023-03-23T14:16:53;6.85;;;3.20;;
34521;SDS011;25561;48.888;8.736;2023-03-23T14:20:07;5.60;;;2.70;;
34521;SDS011;25561;48.888;8.736;2023-03-23T14:23:19;6.13;;;2.92;;
34521;SDS011;25561;48.888;8.736;2023-03-23T14:26:20;6.28;;;2.85;;
34521;SDS011;25561;48.888;8.736;2023-03-23T14:29:21;5.95;;;2.60;;
34521;SDS011;25561;48.888;8.736;2023-03-23T14:32:23;4.82;;;2.90;;
34521;SDS011;25561;48.888;8.736;2023-03-23T14:35:28;4.07;;;2.38;;
34521;SDS011;25561;48.888;8.736;2023-03-23T14:38:31;3.92;;;2.67;;
34521;SDS011;25561;48.888;8.736;2023-03-23T14:41:32;5.43;;;2.92;;
34521;SDS011;25561;48.888;8.736;2023-03-23T14:44:37;7.45;;;2.65;;
34521;SDS011;25561;48.888;8.736;2023-03-23T14:47:48;4.78;;;3.03;;
34521;SDS011;25561;48.888;8.736;2023-03-23T14:51:01;5.57;;;2.90;;
34521;SDS011;25561;48.888;8.736;2023-03-23T14:54:08;7.15;;;2.72;;
34521;SDS011;25561;48.888;8.736;2023-03-23T14:57:12;7.68;;;2.63;;
34521;SDS011;25561;48.888;8.736;2023-03-23T15:00:23;5.43;;;2.85;;
34521;SDS011;25561;48.888;8.736;2023-03-23T15:03:32;4.72;;;2.45;;
34521;SDS011;25561;48.888;8.736;2023-03-23T15:06:36;7.40;;;3.70;;
34521;SDS011;25561;48.888;8.736;2023-03-23T15:09:40;5.25;;;3.33;;
34521;SDS011;25561;48.888;8.736;2023-03-23T15:12:44;6.43;;;2.80;;
34521;SDS011;25561;48.888;8.736;2023-03-23T15:15:50;6.28;;;2.85;;
34521;SDS011;25561;48.888;8.736;2023-03-23T15:18:53;4.70;;;2.72;;
34521;SDS011;25561;48.888;8.736;2023-03-23T15:21:57;4.78;;;2.92;;
34521;SDS011;25561;48.888;8.736;2023-03-23T15:25:10;7.75;;;2.70;;
34521;SDS011;25561;48.888;8.736;2023-03-23T15:28:27;3.47;;;2.33;;
34521;SDS011;25561;48.888;8.736;2023-03-23T15:31:30;4.82;;;2.90;;
34521;SDS011;25561;48.888;8.736;2023-03-23T15:34:32;8.35;;;3.10;;
34521;SDS011;25561;48.888;8.736;2023-03-23T15:37:42;5.50;;;2.72;;
34521;SDS011;25561;48.888;8.736;2023-03-23T15:40:49;6.40;;;3.08;;
34521;SDS011;25561;48.888;8.736;2023-03-23T15:43:54;5.07;;;3.03;;
34521;SDS011;25561;48.888;8.736;2023-03-23T15:47:04;5.45;;;2.65;;
34521;SDS011;25561;48.888;8.736;2023-03-23T15:53:30;5.28;;;3.03;;
34521;SDS011;25561;48.888;8.736;2023-03-23T15:56:32;5.82;;;2.83;;
34521;SDS011;25561;48.888;8.736;2023-03-23T15:59:33;8.35;;;3.53;;
34521;SDS011;25561;48.888;8.736;2023-03-23T16:02:35;11.90;;;2.42;;
34521;SDS011;25561;48.888;8.736;2023-03-23T16:05:37;8.80;;;2.72;;
34521;SDS011;25561;48.888;8.736;2023-03-23T16:08:39;4.28;;;2.60;;
34521;SDS011;25561;48.888;8.736;2023-03-23T16:14:57;6.85;;;3.00;;
34521;SDS011;25561;48.888;8.736;2023-03-23T16:17:59;14.23;;;3.67;;
34521;SDS011;25561;48.888;8.736;2023-03-23T16:21:01;8.43;;;3.38;;
34521;SDS011;25561;48.888;8.736;2023-03-23T16:24:06;10.65;;;3.30;;
34521;SDS011;25561;48.888;8.736;2023-03-23T16:27:09;10.02;;;3.13;;
34521;SDS011;25561;48.888;8.736;2023-03-23T16:30:19;6.90;;;3.10;;
34521;SDS011;25561;48.888;8.736;2023-03-23T16:33:23;8.88;;;3.20;;
34521;SDS011;25561;48.888;8.736;2023-03-23T16:36:25;6.30;;;3.05;;
34521;SDS011;25561;48.888;8.736;2023-03-23T16:39:28;6.78;;;3.53;;
34521;SDS011;25561;48.888;8.736;2023-03-23T16:42:30;10.77;;;3.05;;
34521;SDS011;25561;48.888;8.736;2023-03-23T16:45:31;7.95;;;3.65;;
34521;SDS011;25561;48.888;8.736;2023-03-23T16:48:34;8.45;;;2.85;;
34521;SDS011;25561;48.888;8.736;2023-03-23T16:51:37;10.30;;;3.30;;
34521;SDS011;25561;48.888;8.736;2023-03-23T16:54:41;13.10;;;5.40;;
34521;SDS011;25561;48.888;8.736;2023-03-23T16:57:43;10.30;;;4.10;;
